createdAt,value
2023-04-21T00:01:40.265Z,99.90
2023-04-21T00:04:07.404Z,99.90
2023-04-21T00:06:34.445Z,99.90
2023-04-21T00:09:01.319Z,99.90
2023-04-21T00:11:28.328Z,99.90
2023-04-21T00:13:56.246Z,99.90
2023-04-21T00:16:23.251Z,99.90
2023-04-21T00:18:50.148Z,99.90
2023-04-21T00:21:18.446Z,99.90
2023-04-21T00:23:47.261Z,99.90
2023-04-21T00:26:14.040Z,99.90
2023-04-21T00:28:40.870Z,99.90
2023-04-21T00:31:07.819Z,99.90
2023-04-21T00:33:34.714Z,99.90
2023-04-21T00:36:01.460Z,99.90
2023-04-21T00:38:28.207Z,99.90
2023-04-21T00:40:55.380Z,99.90
2023-04-21T00:43:22.261Z,99.90
2023-04-21T00:45:49.107Z,99.90
2023-04-21T00:48:16.209Z,99.90
2023-04-21T00:50:44.997Z,99.90
2023-04-21T00:53:14.688Z,99.90
2023-04-21T00:55:41.860Z,99.90
2023-04-21T00:58:08.693Z,99.90
2023-04-21T01:00:36.423Z,99.90
2023-04-21T01:03:04.652Z,99.90
2023-04-21T01:05:32.086Z,99.90
2023-04-21T01:07:59.247Z,99.90
2023-04-21T01:10:26.307Z,99.90
2023-04-21T01:12:53.118Z,99.90
2023-04-21T01:15:19.976Z,99.90
2023-04-21T01:17:46.925Z,99.90
2023-04-21T01:20:15.280Z,99.90
2023-04-21T01:22:45.072Z,99.90
2023-04-21T01:25:12.037Z,99.90
2023-04-21T01:27:38.883Z,99.90
2023-04-21T01:30:07.513Z,99.90
2023-04-21T01:32:34.491Z,99.90
2023-04-21T01:35:01.938Z,99.90
2023-04-21T01:37:32.527Z,99.90
2023-04-21T01:40:04.785Z,99.90
2023-04-21T01:42:33.261Z,99.90
2023-04-21T01:45:00.712Z,99.90
2023-04-21T01:47:27.521Z,99.90
2023-04-21T01:49:54.385Z,99.90
2023-04-21T01:52:21.741Z,99.90
2023-04-21T01:54:49.112Z,99.90
2023-04-21T01:57:17.300Z,99.90
2023-04-21T01:59:44.800Z,99.90
2023-04-21T02:02:11.856Z,99.90
2023-04-21T02:04:38.982Z,99.90
2023-04-21T02:07:05.951Z,99.90
2023-04-21T02:09:33.050Z,99.90
2023-04-21T02:12:00.396Z,99.90
2023-04-21T02:14:27.445Z,99.90
2023-04-21T02:16:56.072Z,99.90
2023-04-21T02:19:23.481Z,99.90
2023-04-21T02:21:50.361Z,99.90
2023-04-21T02:24:17.504Z,99.90
2023-04-21T02:26:44.296Z,99.90
2023-04-21T02:29:11.167Z,99.90
2023-04-21T02:31:53.832Z,99.90
2023-04-21T02:34:24.533Z,99.90
2023-04-21T02:36:51.288Z,99.90
2023-04-21T02:39:18.212Z,99.90
2023-04-21T02:41:45.251Z,99.90
2023-04-21T02:44:12.153Z,99.90
2023-04-21T02:46:42.223Z,99.90
2023-04-21T02:49:10.689Z,99.90
2023-04-21T02:51:37.975Z,99.90
2023-04-21T02:54:06.071Z,99.90
2023-04-21T02:56:34.679Z,99.90
2023-04-21T02:59:01.488Z,99.90
2023-04-21T03:01:28.268Z,99.90
2023-04-21T03:03:55.362Z,99.90
2023-04-21T03:06:22.273Z,99.90
2023-04-21T03:08:49.112Z,99.90
2023-04-21T03:11:15.881Z,99.90
2023-04-21T03:13:42.635Z,99.90
2023-04-21T03:16:09.417Z,99.90
2023-04-21T03:18:36.462Z,99.90
2023-04-21T03:21:03.528Z,99.90
2023-04-21T03:23:30.374Z,99.90
2023-04-21T03:25:57.174Z,99.90
2023-04-21T03:28:24.179Z,99.90
2023-04-21T03:30:51.008Z,99.90
2023-04-21T03:33:17.770Z,99.90
2023-04-21T03:35:44.528Z,99.90
2023-04-21T03:38:11.367Z,99.90
2023-04-21T03:40:38.148Z,99.90
2023-04-21T03:43:04.905Z,99.90
2023-04-21T03:45:31.848Z,99.90
2023-04-21T03:47:58.826Z,99.90
2023-04-21T03:50:25.666Z,99.90
2023-04-21T03:52:52.438Z,99.90
2023-04-21T03:55:19.327Z,99.90
2023-04-21T03:57:46.205Z,99.90
2023-04-21T04:00:13.940Z,99.90
2023-04-21T04:02:41.077Z,99.90
2023-04-21T04:05:08.671Z,99.90
2023-04-21T04:07:35.917Z,99.90
2023-04-21T04:10:04.501Z,99.90
2023-04-21T04:12:31.259Z,99.90
2023-04-21T04:14:58.031Z,99.90
2023-04-21T04:17:24.907Z,99.90
2023-04-21T04:19:51.722Z,99.90
2023-04-21T04:22:18.583Z,99.90
2023-04-21T04:24:45.455Z,99.90
2023-04-21T04:27:14.105Z,99.90
2023-04-21T04:29:41.254Z,99.90
2023-04-21T04:32:11.107Z,99.90
2023-04-21T04:34:38.443Z,99.90
2023-04-21T04:37:06.874Z,99.90
2023-04-21T04:39:33.823Z,99.90
2023-04-21T04:42:01.567Z,99.90
2023-04-21T04:44:28.388Z,99.90
2023-04-21T04:46:56.463Z,99.90
2023-04-21T04:49:24.219Z,99.90
2023-04-21T04:51:51.249Z,99.90
2023-04-21T04:54:18.342Z,99.90
2023-04-21T04:56:46.101Z,99.90
2023-04-21T04:59:13.145Z,99.90
2023-04-21T05:01:41.871Z,99.90
2023-04-21T05:04:09.176Z,99.90
2023-04-21T05:06:36.145Z,99.90
2023-04-21T05:09:05.028Z,99.90
2023-04-21T05:11:32.136Z,99.90
2023-04-21T05:13:59.217Z,99.90
2023-04-21T05:16:26.539Z,99.90
2023-04-21T05:18:54.048Z,99.90
2023-04-21T05:21:27.411Z,99.90
2023-04-21T05:24:03.496Z,99.90
2023-04-21T05:26:30.514Z,99.90
2023-04-21T05:28:58.238Z,99.90
2023-04-21T05:31:25.960Z,99.90
2023-04-21T05:33:52.870Z,99.90
2023-04-21T05:36:24.848Z,99.90
2023-04-21T05:38:52.564Z,99.90
2023-04-21T05:41:19.370Z,99.90
2023-04-21T05:43:47.525Z,99.90
2023-04-21T05:46:14.703Z,99.90
2023-04-21T05:48:41.638Z,99.90
2023-04-21T05:51:15.323Z,99.90
2023-04-21T05:53:44.526Z,99.90
2023-04-21T05:56:12.465Z,99.90
2023-04-21T05:58:39.681Z,99.90
2023-04-21T06:01:06.685Z,99.90
2023-04-21T06:03:34.498Z,99.90
2023-04-21T06:06:03.828Z,99.90
2023-04-21T06:08:30.680Z,99.90
2023-04-21T06:10:57.490Z,99.90
2023-04-21T06:13:24.583Z,99.90
2023-04-21T06:15:51.397Z,99.90
2023-04-21T06:18:18.257Z,99.90
2023-04-21T06:20:51.624Z,99.90
2023-04-21T06:23:18.828Z,99.90
2023-04-21T06:25:45.839Z,99.90
2023-04-21T06:28:12.771Z,99.90
2023-04-21T06:30:40.004Z,99.90
2023-04-21T06:33:07.070Z,99.90
2023-04-21T06:35:34.074Z,99.90
2023-04-21T06:38:01.210Z,99.90
2023-04-21T06:40:28.085Z,99.90
2023-04-21T06:42:54.936Z,99.90
2023-04-21T06:45:21.981Z,99.90
2023-04-21T06:47:48.845Z,99.90
2023-04-21T06:50:16.302Z,99.90
2023-04-21T06:52:43.154Z,99.90
2023-04-21T06:55:10.050Z,99.90
2023-04-21T06:57:37.551Z,99.90
2023-04-21T07:00:05.988Z,99.90
2023-04-21T07:02:32.968Z,99.90
2023-04-21T07:04:59.776Z,99.90
2023-04-21T07:07:26.730Z,99.90
2023-04-21T07:09:53.576Z,99.90
2023-04-21T07:12:20.566Z,99.90
2023-04-21T07:14:47.709Z,99.90
2023-04-21T07:17:14.516Z,99.90
2023-04-21T07:19:41.873Z,99.90
2023-04-21T07:22:08.687Z,99.90
2023-04-21T07:24:37.258Z,99.90
2023-04-21T07:27:04.358Z,99.90
2023-04-21T07:29:31.394Z,99.90
2023-04-21T07:31:58.856Z,99.90
2023-04-21T07:34:25.813Z,99.90
2023-04-21T07:36:53.200Z,99.90
2023-04-21T07:39:20.148Z,99.90
2023-04-21T07:41:47.102Z,99.90
2023-04-21T07:44:13.914Z,99.90
2023-04-21T07:46:41.155Z,99.90
2023-04-21T07:49:08.548Z,99.90
2023-04-21T07:51:35.383Z,99.90
2023-04-21T07:54:02.215Z,99.90
2023-04-21T07:56:29.184Z,99.90
2023-04-21T07:58:55.960Z,99.90
2023-04-21T08:01:23.716Z,99.90
2023-04-21T08:03:50.579Z,99.90
2023-04-21T08:06:17.823Z,99.90
2023-04-21T08:11:28.711Z,99.90
2023-04-21T08:13:55.512Z,99.90
2023-04-21T08:16:22.369Z,99.90
2023-04-21T08:18:49.473Z,99.90
2023-04-21T08:21:16.271Z,99.90
2023-04-21T08:23:44.186Z,99.90
2023-04-21T08:26:11.086Z,99.90
2023-04-21T08:28:37.886Z,99.90
2023-04-21T08:31:05.226Z,99.90
2023-04-21T08:33:32.040Z,99.90
2023-04-21T08:36:05.440Z,99.90
2023-04-21T08:38:35.533Z,99.90
2023-04-21T08:41:04.289Z,99.90
2023-04-21T08:43:31.156Z,99.90
2023-04-21T08:45:59.095Z,99.90
2023-04-21T08:48:27.997Z,99.90
2023-04-21T08:50:54.868Z,99.90
2023-04-21T08:53:21.783Z,99.90
2023-04-21T08:56:07.463Z,99.90
2023-04-21T08:58:37.498Z,99.90
2023-04-21T09:01:04.429Z,99.90
2023-04-21T09:03:31.438Z,99.90
2023-04-21T09:06:08.396Z,99.90
2023-04-21T09:08:39.892Z,99.90
2023-04-21T09:11:06.821Z,99.90
2023-04-21T09:13:36.358Z,99.90
2023-04-21T09:16:16.483Z,99.90
2023-04-21T09:18:44.505Z,99.90
2023-04-21T09:21:17.302Z,99.90
2023-04-21T09:23:46.486Z,99.90
2023-04-21T09:26:14.049Z,99.90
2023-04-21T09:28:46.328Z,99.90
2023-04-21T09:31:20.455Z,99.90
2023-04-21T09:34:01.178Z,99.90
2023-04-21T09:36:31.109Z,99.90
2023-04-21T09:41:32.912Z,99.90
2023-04-21T09:44:04.710Z,99.90
2023-04-21T09:46:36.482Z,99.90
2023-04-21T09:49:04.617Z,99.90
2023-04-21T09:52:02.270Z,99.90
2023-04-21T09:56:57.681Z,99.90
2023-04-21T09:59:45.400Z,99.90
2023-04-21T10:02:13.495Z,99.90
2023-04-21T10:04:43.304Z,99.90
2023-04-21T10:07:11.169Z,99.90
2023-04-21T10:09:49.473Z,99.90
2023-04-21T10:12:17.818Z,99.90
2023-04-21T10:14:44.684Z,99.90
2023-04-21T10:17:12.136Z,99.90
2023-04-21T10:19:57.214Z,99.90
2023-04-21T10:22:30.039Z,99.90
2023-04-21T10:25:00.164Z,99.90
2023-04-21T10:27:39.550Z,99.90
2023-04-21T10:30:29.009Z,99.90
2023-04-21T10:33:06.647Z,99.90
2023-04-21T10:35:58.879Z,99.90
2023-04-21T10:38:42.304Z,99.90
2023-04-21T10:41:34.848Z,99.90
2023-04-21T10:44:16.317Z,99.90
2023-04-21T10:46:49.060Z,99.90
2023-04-21T10:49:25.578Z,99.90
2023-04-21T10:51:59.229Z,99.90
2023-04-21T10:54:27.802Z,99.50
2023-04-21T10:56:56.366Z,99.90
2023-04-21T10:59:24.242Z,99.20
2023-04-21T11:01:51.348Z,99.10
2023-04-21T11:04:21.495Z,99.90
2023-04-21T11:07:14.536Z,99.90
2023-04-21T11:09:42.648Z,99.90
2023-04-21T11:12:13.626Z,98.70
2023-04-21T11:14:43.277Z,99.60
2023-04-21T11:17:15.787Z,99.20
2023-04-21T11:19:46.903Z,95.70
2023-04-21T11:22:13.784Z,96.80
2023-04-21T11:24:46.155Z,96.70
2023-04-21T11:27:14.602Z,97.50
2023-04-21T11:29:42.307Z,95.20
2023-04-21T11:32:09.597Z,93.30
2023-04-21T11:34:40.400Z,94.30
2023-04-21T11:37:09.794Z,94.80
2023-04-21T11:39:40.797Z,94.60
2023-04-21T11:42:07.717Z,94.60
2023-04-21T11:44:36.289Z,92.30
2023-04-21T11:47:21.183Z,92.90
2023-04-21T11:49:55.080Z,93.10
2023-04-21T11:52:29.516Z,92.60
2023-04-21T11:55:02.783Z,92.90
2023-04-21T11:57:32.402Z,92.80
2023-04-21T12:00:01.935Z,91.50
2023-04-21T12:02:44.692Z,92.50
2023-04-21T12:05:13.590Z,91.30
2023-04-21T12:07:46.147Z,91.10
2023-04-21T12:10:17.348Z,92.00
2023-04-21T12:12:45.554Z,91.30
2023-04-21T12:15:21.452Z,90.20
2023-04-21T12:17:53.560Z,90.00
2023-04-21T12:20:24.146Z,89.80
2023-04-21T12:22:51.207Z,89.00
2023-04-21T12:25:18.569Z,88.40
2023-04-21T12:27:50.000Z,85.20
2023-04-21T12:30:17.270Z,86.10
2023-04-21T12:32:44.150Z,83.50
2023-04-21T12:35:11.255Z,80.30
2023-04-21T12:37:38.939Z,80.10
2023-04-21T12:40:07.884Z,81.90
2023-04-21T12:42:37.430Z,83.30
2023-04-21T12:45:06.529Z,83.00
2023-04-21T12:47:34.024Z,81.60
2023-04-21T12:50:01.288Z,83.10
2023-04-21T12:52:28.202Z,84.70
2023-04-21T12:54:55.241Z,83.40
2023-04-21T12:57:22.290Z,81.60
2023-04-21T12:59:49.474Z,83.50
2023-04-21T13:02:16.754Z,85.90
2023-04-21T13:04:43.680Z,82.90
2023-04-21T13:07:10.656Z,81.10
2023-04-21T13:09:37.521Z,83.70
2023-04-21T13:12:04.602Z,82.60
2023-04-21T13:14:31.679Z,81.00
2023-04-21T13:16:59.046Z,81.50
2023-04-21T13:19:26.287Z,81.00
2023-04-21T13:21:54.394Z,82.80
2023-04-21T13:24:22.134Z,83.30
2023-04-21T13:26:49.004Z,80.60
2023-04-21T13:29:16.246Z,79.90
2023-04-21T13:31:43.307Z,78.50
2023-04-21T13:34:10.509Z,78.60
2023-04-21T13:36:37.592Z,79.00
2023-04-21T13:39:05.586Z,78.80
2023-04-21T13:41:32.534Z,79.20
2023-04-21T13:43:59.865Z,78.90
2023-04-21T13:46:27.136Z,78.40
2023-04-21T13:48:54.496Z,79.60
2023-04-21T13:51:21.493Z,81.00
2023-04-21T13:53:49.053Z,80.90
2023-04-21T13:56:16.943Z,77.30
2023-04-21T13:58:45.140Z,80.00
2023-04-21T14:01:14.592Z,80.70
2023-04-21T14:03:41.944Z,79.80
2023-04-21T14:06:09.031Z,79.60
2023-04-21T14:08:36.101Z,78.50
2023-04-21T14:11:04.100Z,77.60
2023-04-21T14:13:39.522Z,76.50
2023-04-21T14:16:11.669Z,76.40
2023-04-21T14:18:44.266Z,76.40
2023-04-21T14:21:14.179Z,77.90
2023-04-21T14:23:40.973Z,77.50
2023-04-21T14:26:07.857Z,77.80
2023-04-21T14:28:34.638Z,76.60
2023-04-21T14:31:01.806Z,77.40
2023-04-21T14:33:29.673Z,76.60
2023-04-21T14:35:56.870Z,78.10
2023-04-21T14:38:24.453Z,79.20
2023-04-21T14:40:54.458Z,79.50
2023-04-21T14:43:22.074Z,79.40
2023-04-21T14:45:49.149Z,78.60
2023-04-21T14:48:16.229Z,78.70
2023-04-21T14:50:43.224Z,78.00
2023-04-21T14:53:10.081Z,76.80
2023-04-21T14:55:36.939Z,77.70
2023-04-21T14:58:03.873Z,76.50
2023-04-21T15:00:32.103Z,76.60
2023-04-21T15:02:59.354Z,75.10
2023-04-21T15:05:26.378Z,75.30
2023-04-21T15:07:53.717Z,74.10
2023-04-21T15:10:20.634Z,75.10
2023-04-21T15:12:47.588Z,75.90
2023-04-21T15:15:14.509Z,75.90
2023-04-21T15:17:41.510Z,73.50
2023-04-21T15:20:10.177Z,74.10
2023-04-21T15:22:37.264Z,74.30
2023-04-21T15:25:04.484Z,73.70
2023-04-21T15:27:31.352Z,73.00
2023-04-21T15:29:58.444Z,73.90
2023-04-21T15:32:25.576Z,73.10
2023-04-21T15:34:52.646Z,73.20
2023-04-21T15:37:22.837Z,73.40
2023-04-21T15:39:51.204Z,71.80
2023-04-21T15:42:18.078Z,70.50
2023-04-21T15:44:46.912Z,71.10
2023-04-21T15:47:16.413Z,71.40
2023-04-21T15:49:43.511Z,69.40
2023-04-21T15:52:11.023Z,70.10
2023-04-21T15:54:38.275Z,68.50
2023-04-21T15:57:05.686Z,68.30
2023-04-21T15:59:32.568Z,69.90
2023-04-21T16:01:59.505Z,70.70
2023-04-21T16:04:26.617Z,71.20
2023-04-21T16:06:53.695Z,69.20
2023-04-21T16:09:23.640Z,68.60
2023-04-21T16:11:51.264Z,71.30
2023-04-21T16:14:18.722Z,71.50
2023-04-21T16:16:45.982Z,72.10
2023-04-21T16:19:12.960Z,72.70
2023-04-21T16:21:40.157Z,71.50
2023-04-21T16:24:08.774Z,71.80
2023-04-21T16:26:36.704Z,72.90
2023-04-21T16:29:03.694Z,72.20
2023-04-21T16:31:31.329Z,72.30
2023-04-21T16:33:59.892Z,74.30
2023-04-21T16:36:28.478Z,74.30
2023-04-21T16:38:56.085Z,74.50
2023-04-21T16:41:23.449Z,74.90
2023-04-21T16:43:50.402Z,75.30
2023-04-21T16:46:17.474Z,75.40
2023-04-21T16:48:44.441Z,75.90
2023-04-21T16:51:11.283Z,75.40
2023-04-21T16:53:40.130Z,77.30
2023-04-21T16:56:07.369Z,76.60
2023-04-21T16:58:34.249Z,76.80
2023-04-21T17:01:01.334Z,76.40
2023-04-21T17:03:29.482Z,77.40
2023-04-21T17:05:56.570Z,77.40
2023-04-21T17:08:23.385Z,77.50
2023-04-21T17:10:50.453Z,76.90
2023-04-21T17:13:17.240Z,77.30
2023-04-21T17:15:44.071Z,77.80
2023-04-21T17:18:11.216Z,77.60
2023-04-21T17:20:38.175Z,77.80
2023-04-21T17:23:05.021Z,78.30
2023-04-21T17:25:32.015Z,78.80
2023-04-21T17:27:58.861Z,78.80
2023-04-21T17:30:25.914Z,78.80
2023-04-21T17:33:04.057Z,81.10
2023-04-21T17:35:35.729Z,81.10
2023-04-21T17:38:02.875Z,80.70
2023-04-21T17:40:29.808Z,80.30
2023-04-21T17:42:56.971Z,80.40
2023-04-21T17:45:25.252Z,80.40
2023-04-21T17:47:52.188Z,81.80
2023-04-21T17:50:19.597Z,82.20
2023-04-21T17:52:46.523Z,82.60
2023-04-21T17:55:15.510Z,82.80
2023-04-21T17:57:42.498Z,83.20
2023-04-21T18:00:11.459Z,83.40
2023-04-21T18:02:38.329Z,83.80
2023-04-21T18:05:06.461Z,83.70
2023-04-21T18:07:33.700Z,84.40
2023-04-21T18:10:00.540Z,84.80
2023-04-21T18:12:27.390Z,84.90
2023-04-21T18:14:54.155Z,84.70
2023-04-21T18:17:23.301Z,85.10
2023-04-21T18:19:50.269Z,85.60
2023-04-21T18:22:17.225Z,85.40
2023-04-21T18:24:44.171Z,85.70
2023-04-21T18:27:11.267Z,85.80
2023-04-21T18:29:38.133Z,86.00
2023-04-21T18:32:05.091Z,86.20
2023-04-21T18:34:31.916Z,86.90
2023-04-21T18:36:59.163Z,87.80
2023-04-21T18:39:26.210Z,87.40
2023-04-21T18:41:53.206Z,87.40
2023-04-21T18:44:20.088Z,87.30
2023-04-21T18:46:47.085Z,87.80
2023-04-21T18:49:13.986Z,88.00
2023-04-21T18:51:41.504Z,88.80
2023-04-21T18:54:08.590Z,90.20
2023-04-21T18:56:35.402Z,90.10
2023-04-21T18:59:02.218Z,90.70
2023-04-21T19:01:29.118Z,91.10
2023-04-21T19:03:56.340Z,91.50
2023-04-21T19:06:23.328Z,92.00
2023-04-21T19:08:52.925Z,92.30
2023-04-21T19:11:19.804Z,92.30
2023-04-21T19:13:48.278Z,93.40
2023-04-21T19:16:16.622Z,93.90
2023-04-21T19:18:43.783Z,94.20
2023-04-21T19:21:13.509Z,94.30
2023-04-21T19:23:41.670Z,94.00
2023-04-21T19:26:09.744Z,94.40
2023-04-21T19:28:36.731Z,94.40
2023-04-21T19:31:03.762Z,95.70
2023-04-21T19:33:31.138Z,96.00
2023-04-21T19:35:58.836Z,96.60
2023-04-21T19:38:26.616Z,96.00
2023-04-21T19:40:54.803Z,96.00
2023-04-21T19:43:22.646Z,96.10
2023-04-21T19:45:49.756Z,96.20
2023-04-21T19:48:17.467Z,96.60
2023-04-21T19:50:44.432Z,96.80
2023-04-21T19:53:14.671Z,96.80
2023-04-21T19:55:45.820Z,97.00
2023-04-21T19:58:12.667Z,97.50
2023-04-21T20:00:39.528Z,97.60
2023-04-21T20:03:07.442Z,98.20
2023-04-21T20:05:34.649Z,98.70
2023-04-21T20:08:01.468Z,99.90
2023-04-21T20:10:28.274Z,99.90
2023-04-21T20:12:55.125Z,99.90
2023-04-21T20:15:22.541Z,99.90
2023-04-21T20:17:49.959Z,99.90
2023-04-21T20:20:17.519Z,99.90
2023-04-21T20:22:44.521Z,99.90
2023-04-21T20:25:11.364Z,99.90
2023-04-21T20:27:38.532Z,99.90
2023-04-21T20:30:08.027Z,99.90
2023-04-21T20:32:35.011Z,99.90
2023-04-21T20:35:02.067Z,99.90
2023-04-21T20:37:29.616Z,99.90
2023-04-21T20:39:57.134Z,99.90
2023-04-21T20:42:23.946Z,99.90
2023-04-21T20:44:51.125Z,99.90
2023-04-21T20:47:18.040Z,99.90
2023-04-21T20:49:46.890Z,99.90
2023-04-21T20:52:13.786Z,99.90
2023-04-21T20:54:40.704Z,99.90
2023-04-21T20:57:08.485Z,99.90
2023-04-21T20:59:35.613Z,99.90
2023-04-21T21:02:02.670Z,99.90
2023-04-21T21:04:29.690Z,99.90
2023-04-21T21:06:56.661Z,99.90
2023-04-21T21:09:23.596Z,99.90
2023-04-21T21:11:50.534Z,99.90
2023-04-21T21:14:17.509Z,99.90
2023-04-21T21:16:44.465Z,99.90
2023-04-21T21:19:12.667Z,99.90
2023-04-21T21:21:39.505Z,99.90
2023-04-21T21:24:06.742Z,99.90
2023-04-21T21:26:33.917Z,99.90
2023-04-21T21:29:00.676Z,99.90
2023-04-21T21:31:27.779Z,99.90
2023-04-21T21:33:55.132Z,99.90
2023-04-21T21:36:22.064Z,99.90
2023-04-21T21:38:48.845Z,99.90
2023-04-21T21:41:16.937Z,99.90
2023-04-21T21:43:43.714Z,99.90
2023-04-21T21:46:10.544Z,99.90
2023-04-21T21:48:37.444Z,99.90
2023-04-21T21:51:05.628Z,99.90
2023-04-21T21:53:32.759Z,99.90
2023-04-21T21:58:55.746Z,99.90
2023-04-21T22:01:23.237Z,99.90
2023-04-21T22:03:51.735Z,99.90
2023-04-21T22:06:18.735Z,99.90
2023-04-21T22:08:45.701Z,99.90
2023-04-21T22:11:12.586Z,99.90
2023-04-21T22:13:39.514Z,99.90
2023-04-21T22:16:06.962Z,99.90
2023-04-21T22:18:33.853Z,99.90
2023-04-21T22:21:00.675Z,99.90
2023-04-21T22:23:27.514Z,99.90
2023-04-21T22:25:54.299Z,99.90
2023-04-21T22:28:21.101Z,99.90
2023-04-21T22:30:47.883Z,99.90
2023-04-21T22:33:14.813Z,99.90
2023-04-21T22:35:41.651Z,99.90
2023-04-21T22:38:08.469Z,99.90
2023-04-21T22:40:35.943Z,99.90
2023-04-21T22:43:03.010Z,99.90
2023-04-21T22:45:29.856Z,99.90
2023-04-21T22:47:56.834Z,99.90
2023-04-21T22:50:24.125Z,99.90
2023-04-21T22:52:51.773Z,99.90
2023-04-21T22:55:18.546Z,99.90
2023-04-21T22:57:45.600Z,99.90
2023-04-21T23:00:12.928Z,99.90
2023-04-21T23:02:39.927Z,99.90
2023-04-21T23:05:07.644Z,99.90
2023-04-21T23:07:34.528Z,99.90
2023-04-21T23:10:01.305Z,99.90
2023-04-21T23:12:28.178Z,99.90
2023-04-21T23:14:54.961Z,99.90
2023-04-21T23:17:22.061Z,99.90
2023-04-21T23:19:49.035Z,99.90
2023-04-21T23:22:15.881Z,99.90
2023-04-21T23:24:42.648Z,99.90
2023-04-21T23:27:09.574Z,99.90
2023-04-21T23:29:36.707Z,99.90
2023-04-21T23:32:04.140Z,99.90
2023-04-21T23:34:31.756Z,99.90
2023-04-21T23:36:58.589Z,99.90
2023-04-21T23:39:25.691Z,99.90
2023-04-21T23:41:52.580Z,99.90
2023-04-21T23:44:19.377Z,99.90
2023-04-21T23:46:46.208Z,99.90
2023-04-21T23:49:13.039Z,99.90
2023-04-21T23:51:40.430Z,99.90
2023-04-21T23:54:07.836Z,99.90
2023-04-21T23:56:34.621Z,99.90
2023-04-21T23:59:01.430Z,99.90
